createdAt,value
2022-12-19T00:01:24.493Z,12.00
2022-12-19T00:05:27.942Z,13.23
2022-12-19T00:09:32.710Z,12.65
2022-12-19T00:13:40.856Z,14.85
2022-12-19T00:17:44.636Z,14.82
2022-12-19T00:21:48.049Z,12.50
2022-12-19T00:25:52.564Z,12.30
2022-12-19T00:29:57.377Z,14.05
2022-12-19T00:34:00.685Z,14.52
2022-12-19T00:38:04.438Z,14.15
2022-12-19T00:42:09.001Z,12.68
2022-12-19T00:46:14.271Z,11.77
2022-12-19T00:50:17.679Z,13.30
2022-12-19T00:54:21.039Z,14.20
2022-12-19T00:58:28.344Z,9.85
2022-12-19T01:02:31.973Z,13.18
2022-12-19T01:06:35.421Z,13.77
2022-12-19T01:10:39.079Z,11.27
2022-12-19T01:14:42.903Z,12.90
2022-12-19T01:18:46.091Z,10.95
2022-12-19T01:22:49.615Z,9.90
2022-12-19T01:26:52.877Z,9.73
2022-12-19T01:30:57.326Z,10.80
2022-12-19T01:35:02.821Z,9.45
2022-12-19T01:39:06.462Z,9.02
2022-12-19T01:43:16.050Z,9.80
2022-12-19T01:47:20.710Z,10.45
2022-12-19T01:51:26.283Z,8.60
2022-12-19T01:55:29.644Z,11.45
2022-12-19T01:59:36.972Z,11.05
2022-12-19T02:03:43.322Z,8.93
2022-12-19T02:07:47.736Z,8.68
2022-12-19T02:11:51.538Z,8.88
2022-12-19T02:16:06.027Z,9.13
2022-12-19T02:20:37.835Z,8.63
2022-12-19T02:25:01.247Z,9.07
2022-12-19T02:29:29.441Z,9.18
2022-12-19T02:33:41.216Z,8.32
2022-12-19T02:37:50.855Z,4.93
2022-12-19T02:42:00.405Z,8.32
2022-12-19T02:46:05.978Z,10.90
2022-12-19T02:50:11.233Z,7.45
2022-12-19T02:54:14.418Z,8.88
2022-12-19T02:58:38.888Z,9.70
2022-12-19T03:03:00.778Z,10.45
2022-12-19T03:11:17.400Z,10.15
2022-12-19T03:15:21.338Z,7.25
2022-12-19T03:19:25.882Z,9.32
2022-12-19T03:23:31.540Z,8.52
2022-12-19T03:27:37.960Z,8.75
2022-12-19T03:31:43.574Z,11.52
2022-12-19T03:35:50.013Z,8.00
2022-12-19T03:39:58.508Z,7.68
2022-12-19T03:44:00.638Z,8.07
2022-12-19T03:48:09.530Z,10.52
2022-12-19T03:52:25.012Z,7.10
2022-12-19T03:56:35.772Z,10.25
2022-12-19T04:00:42.451Z,7.50
2022-12-19T04:04:50.449Z,9.02
2022-12-19T04:08:53.708Z,8.57
2022-12-19T04:13:02.798Z,7.80
2022-12-19T04:17:14.758Z,8.35
2022-12-19T04:21:24.910Z,7.85
2022-12-19T04:25:31.670Z,7.65
2022-12-19T04:29:38.218Z,7.20
2022-12-19T04:33:41.668Z,8.40
2022-12-19T04:37:45.173Z,8.68
2022-12-19T04:41:48.229Z,9.60
2022-12-19T04:45:57.308Z,8.85
2022-12-19T04:50:00.684Z,7.82
2022-12-19T04:54:04.751Z,7.88
2022-12-19T04:58:08.670Z,7.13
2022-12-19T05:02:14.161Z,8.00
2022-12-19T05:06:17.437Z,9.65
2022-12-19T05:10:20.911Z,8.82
2022-12-19T05:14:24.184Z,8.43
2022-12-19T05:18:30.009Z,9.73
2022-12-19T05:22:33.108Z,9.23
2022-12-19T05:26:36.359Z,9.93
2022-12-19T05:30:39.633Z,10.10
2022-12-19T05:34:44.498Z,9.15
2022-12-19T05:38:47.793Z,9.48
2022-12-19T05:42:51.109Z,10.88
2022-12-19T05:52:40.629Z,10.20
2022-12-19T05:56:44.138Z,8.32
2022-12-19T06:00:47.302Z,9.23
2022-12-19T06:04:50.637Z,12.73
2022-12-19T06:08:56.530Z,36.47
2022-12-19T06:12:59.714Z,16.67
2022-12-19T06:17:03.112Z,8.85
2022-12-19T06:21:08.860Z,8.32
2022-12-19T06:25:13.701Z,10.43
2022-12-19T06:29:17.238Z,11.75
2022-12-19T06:33:20.639Z,10.27
2022-12-19T06:37:24.087Z,11.40
2022-12-19T06:41:46.858Z,9.85
2022-12-19T06:45:51.129Z,10.95
2022-12-19T06:49:54.776Z,9.50
2022-12-19T06:53:58.847Z,9.43
2022-12-19T06:58:03.423Z,8.43
2022-12-19T07:02:23.052Z,10.68
2022-12-19T07:06:26.574Z,10.80
2022-12-19T07:10:29.829Z,9.20
2022-12-19T07:14:35.286Z,9.13
2022-12-19T07:18:40.988Z,9.40
2022-12-19T07:22:45.222Z,9.93
2022-12-19T07:26:48.818Z,9.60
2022-12-19T07:30:53.620Z,10.07
2022-12-19T07:34:56.661Z,10.13
2022-12-19T07:39:00.100Z,8.55
2022-12-19T07:43:03.496Z,10.98
2022-12-19T07:47:08.724Z,10.15
2022-12-19T07:51:11.749Z,12.30
2022-12-19T07:55:15.021Z,11.25
2022-12-19T07:59:18.230Z,11.38
2022-12-19T08:03:23.121Z,11.52
2022-12-19T08:07:26.213Z,11.00
2022-12-19T08:11:38.584Z,12.60
2022-12-19T08:23:49.002Z,13.70
2022-12-19T08:27:52.818Z,12.55
2022-12-19T08:31:56.119Z,14.68
2022-12-19T08:36:04.424Z,13.70
2022-12-19T08:40:09.386Z,13.52
2022-12-19T08:44:13.937Z,13.02
2022-12-19T08:48:17.561Z,12.55
2022-12-19T08:52:22.507Z,16.55
2022-12-19T08:56:26.375Z,14.93
2022-12-19T09:00:29.699Z,13.35
2022-12-19T09:05:25.985Z,15.60
2022-12-19T09:09:00.255Z,14.55
2022-12-19T09:13:04.192Z,13.07
2022-12-19T09:17:07.869Z,14.38
2022-12-19T09:21:11.132Z,13.73
2022-12-19T09:25:16.036Z,11.93
2022-12-19T09:29:21.721Z,13.90
2022-12-19T09:33:25.738Z,12.65
2022-12-19T09:37:29.158Z,12.23
2022-12-19T09:41:59.220Z,12.63
2022-12-19T09:46:13.028Z,12.02
2022-12-19T09:50:32.768Z,13.38
2022-12-19T09:54:39.952Z,14.05
2022-12-19T09:58:51.098Z,12.60
2022-12-19T10:03:01.426Z,12.40
2022-12-19T10:07:22.308Z,12.07
2022-12-19T10:12:47.697Z,10.30
2022-12-19T10:16:18.084Z,12.07
2022-12-19T10:20:27.960Z,12.65
2022-12-19T10:25:08.327Z,12.65
2022-12-19T10:29:29.763Z,12.02
2022-12-19T10:33:43.382Z,12.18
2022-12-19T10:37:52.510Z,12.25
2022-12-19T10:42:03.383Z,10.23
2022-12-19T10:46:16.886Z,10.38
2022-12-19T10:50:25.797Z,10.85
2022-12-19T10:54:40.374Z,10.95
2022-12-19T10:58:46.158Z,11.70
2022-12-19T11:02:52.152Z,11.30
2022-12-19T11:07:19.518Z,11.65
2022-12-19T11:12:39.107Z,10.52
2022-12-19T11:22:53.210Z,12.98
2022-12-19T11:29:38.395Z,11.13
2022-12-19T11:30:42.986Z,13.45
2022-12-19T11:32:01.650Z,10.82
2022-12-19T11:33:47.040Z,11.38
2022-12-19T11:37:56.170Z,10.07
2022-12-19T11:42:10.067Z,10.45
2022-12-19T11:46:29.694Z,11.73
2022-12-19T11:50:36.452Z,11.85
2022-12-19T11:54:52.201Z,9.13
2022-12-19T12:13:21.514Z,12.15
2022-12-19T12:25:01.538Z,11.68
2022-12-19T12:31:00.088Z,10.52
2022-12-19T12:31:32.068Z,11.65
2022-12-19T12:31:40.357Z,10.38
2022-12-19T12:35:46.740Z,9.18
2022-12-19T12:41:21.701Z,9.15
2022-12-19T12:45:31.504Z,12.32
2022-12-19T12:49:40.540Z,11.15
2022-12-19T12:53:47.353Z,10.90
2022-12-19T12:57:52.379Z,10.98
2022-12-19T13:01:58.778Z,10.23
2022-12-19T13:06:07.846Z,9.80
2022-12-19T13:10:26.067Z,11.65
2022-12-19T13:14:50.005Z,10.40
2022-12-19T13:19:09.143Z,11.18
2022-12-19T13:23:35.599Z,11.75
2022-12-19T13:27:43.228Z,11.43
2022-12-19T13:32:12.602Z,10.48
2022-12-19T13:39:54.906Z,10.95
2022-12-19T13:41:48.931Z,11.52
2022-12-19T13:45:58.717Z,10.30
2022-12-19T13:50:21.038Z,10.95
2022-12-19T13:54:32.100Z,10.70
2022-12-19T13:58:43.898Z,12.65
2022-12-19T14:02:53.091Z,11.30
2022-12-19T14:07:01.823Z,11.48
2022-12-19T14:11:40.874Z,11.05
2022-12-19T14:15:36.624Z,11.52
2022-12-19T14:19:41.837Z,10.63
2022-12-19T14:23:50.282Z,12.50
2022-12-19T14:28:27.102Z,11.68
2022-12-19T14:33:40.144Z,13.70
2022-12-19T14:36:50.695Z,12.18
2022-12-19T14:41:09.253Z,11.77
2022-12-19T14:52:51.807Z,12.60
2022-12-19T14:54:05.505Z,11.93
2022-12-19T14:56:08.586Z,12.43
2022-12-19T14:58:57.277Z,13.00
2022-12-19T15:03:06.147Z,14.15
2022-12-19T15:07:17.573Z,11.38
2022-12-19T15:12:00.152Z,12.25
2022-12-19T15:16:26.840Z,11.20
2022-12-19T15:20:29.991Z,11.93
2022-12-19T15:24:33.362Z,13.20
2022-12-19T15:28:41.758Z,11.10
2022-12-19T15:32:48.569Z,13.93
2022-12-19T15:36:52.317Z,11.60
2022-12-19T15:40:57.051Z,11.68
2022-12-19T15:45:01.184Z,12.25
2022-12-19T15:49:06.500Z,14.45
2022-12-19T15:53:38.128Z,11.85
2022-12-19T15:57:48.034Z,12.57
2022-12-19T16:01:51.176Z,13.75
2022-12-19T16:05:56.928Z,12.00
2022-12-19T16:10:00.199Z,13.82
2022-12-19T16:14:03.681Z,13.32
2022-12-19T16:18:08.526Z,13.50
2022-12-19T16:22:19.491Z,12.40
2022-12-19T16:26:32.664Z,14.30
2022-12-19T16:30:37.011Z,11.80
2022-12-19T16:34:44.488Z,13.55
2022-12-19T16:38:49.364Z,12.35
2022-12-19T16:43:14.322Z,14.35
2022-12-19T16:47:19.206Z,15.05
2022-12-19T16:51:24.084Z,12.85
2022-12-19T16:55:28.950Z,13.60
2022-12-19T16:59:35.173Z,15.50
2022-12-19T17:03:41.728Z,13.13
2022-12-19T17:07:45.101Z,14.52
2022-12-19T17:11:51.764Z,16.20
2022-12-19T17:15:57.391Z,15.75
2022-12-19T17:20:00.859Z,14.27
2022-12-19T17:24:07.016Z,17.05
2022-12-19T17:28:12.852Z,15.23
2022-12-19T17:32:23.990Z,14.88
2022-12-19T17:36:37.126Z,15.52
2022-12-19T17:40:42.213Z,14.23
2022-12-19T17:44:46.831Z,14.75
2022-12-19T17:48:51.940Z,15.57
2022-12-19T17:52:56.356Z,14.50
2022-12-19T17:56:59.804Z,14.88
2022-12-19T18:01:04.689Z,13.20
2022-12-19T18:05:08.507Z,13.10
2022-12-19T18:09:19.489Z,14.57
2022-12-19T18:13:22.608Z,13.95
2022-12-19T18:17:27.510Z,12.98
2022-12-19T18:21:35.355Z,12.27
2022-12-19T18:25:40.029Z,13.25
2022-12-19T18:29:43.514Z,11.93
2022-12-19T18:33:49.492Z,12.25
2022-12-19T18:37:53.725Z,15.57
2022-12-19T18:41:57.747Z,13.15
2022-12-19T18:46:01.222Z,13.60
2022-12-19T18:50:16.413Z,12.93
2022-12-19T18:54:23.363Z,14.00
2022-12-19T18:58:26.752Z,11.20
2022-12-19T19:02:32.598Z,15.60
2022-12-19T19:06:38.499Z,15.68
2022-12-19T19:10:44.307Z,13.05
2022-12-19T19:14:47.517Z,13.80
2022-12-19T19:18:54.444Z,15.13
2022-12-19T19:23:00.389Z,13.82
2022-12-19T19:27:04.152Z,14.88
2022-12-19T19:31:12.510Z,14.73
2022-12-19T19:35:22.356Z,13.48
2022-12-19T19:39:29.033Z,14.45
2022-12-19T19:43:35.749Z,13.77
2022-12-19T19:47:39.156Z,13.73
2022-12-19T19:51:43.117Z,13.27
2022-12-19T19:55:57.230Z,12.30
2022-12-19T20:00:02.760Z,11.50
2022-12-19T20:04:06.548Z,11.48
2022-12-19T20:08:10.712Z,13.10
2022-12-19T20:12:18.204Z,13.73
2022-12-19T20:16:21.976Z,13.63
2022-12-19T20:20:28.896Z,16.38
2022-12-19T20:24:34.544Z,13.82
2022-12-19T20:28:47.960Z,12.75
2022-12-19T20:32:53.677Z,13.75
2022-12-19T20:36:57.173Z,12.35
2022-12-19T20:41:00.317Z,13.75
2022-12-19T20:45:05.924Z,14.63
2022-12-19T20:49:13.966Z,12.90
2022-12-19T20:53:43.557Z,13.75
2022-12-19T20:57:46.550Z,15.82
2022-12-19T21:01:57.797Z,13.98
2022-12-19T21:06:01.763Z,12.88
2022-12-19T21:10:05.580Z,12.02
2022-12-19T21:14:09.612Z,15.32
2022-12-19T21:18:17.532Z,15.95
2022-12-19T21:22:20.896Z,14.43
2022-12-19T21:26:26.613Z,13.35
2022-12-19T21:30:31.218Z,15.77
2022-12-19T21:34:36.104Z,14.23
2022-12-19T21:38:40.280Z,15.02
2022-12-19T21:42:43.781Z,13.10
2022-12-19T21:46:47.146Z,14.45
2022-12-19T21:50:57.682Z,13.30
2022-12-19T21:55:00.963Z,14.70
2022-12-19T21:59:06.611Z,14.70
2022-12-19T22:03:14.944Z,13.93
2022-12-19T22:07:20.314Z,14.93
2022-12-19T22:11:24.417Z,15.05
2022-12-19T22:15:27.527Z,16.88
2022-12-19T22:19:30.888Z,15.20
2022-12-19T22:23:35.390Z,14.93
2022-12-19T22:27:41.255Z,16.27
2022-12-19T22:31:45.163Z,17.50
2022-12-19T22:35:48.608Z,14.20
2022-12-19T22:39:53.850Z,14.07
2022-12-19T22:43:57.593Z,14.02
2022-12-19T22:48:00.911Z,14.77
2022-12-19T22:52:04.309Z,14.40
2022-12-19T22:56:12.758Z,15.63
2022-12-19T23:00:16.711Z,15.80
2022-12-19T23:04:20.105Z,18.58
2022-12-19T23:08:23.264Z,13.73
2022-12-19T23:12:27.807Z,17.33
2022-12-19T23:16:31.174Z,15.63
2022-12-19T23:20:34.290Z,14.52
2022-12-19T23:24:37.790Z,19.08
2022-12-19T23:28:43.249Z,17.02
2022-12-19T23:32:50.792Z,14.73
2022-12-19T23:37:11.847Z,17.25
2022-12-19T23:41:16.861Z,17.77
2022-12-19T23:45:21.867Z,16.10
2022-12-19T23:49:25.318Z,18.75
2022-12-19T23:53:29.317Z,17.38
2022-12-19T23:57:32.291Z,17.85
